ADDS TAF Data INFO
IDs: Format: Raw Decoded Include METARs

Data at: 2135 UTC 26 May 2018

Region: TOP
KATL 261959Z 2620/2724 20006KT P6SM VCSH SCT040 BKN060
  TEMPO 2623/2701 VRB15G25KT 3SM SHRA BKN035
  FM270200 17004KT P6SM SCT040 BKN200
  FM271100 11006KT P6SM BKN006 OVC250
  FM271400 11008KT P6SM BKN012
  FM271600 11008KT P6SM VCSH BKN025 OVC180
  FM272100 10010KT P6SM -SHRA OVC030


KBOS 262057Z 2621/2724 27009KT P6SM BKN250
  FM262130 04012G19KT P6SM SCT050 BKN200
  FM270000 06010KT 4SM BR VCSH OVC010
  FM270700 07012G22KT 3SM BR OVC008
  FM271300 07012G21KT 5SM BR OVC010
  FM271600 07012G20KT P6SM OVC010
  FM272100 06012G19KT P6SM VCSH OVC010


KBWI 262120Z 2621/2724 27004KT P6SM SCT050 BKN120
  FM270800 VRB03KT 5SM BR SCT080
  FM271200 VRB03KT P6SM SCT080
  FM271700 22005KT P6SM VCTS BKN050CB


KCLE 262049Z 2621/2724 22005KT P6SM BKN100
  TEMPO 2622/2623 2SM TSRA BKN035CB
  FM270100 16005KT P6SM BKN250
  TEMPO 2709/2713 4SM BR
  FM271500 30004KT P6SM SCT050
  FM271800 34006KT P6SM SCT250


KCLT 261958Z 2620/2724 20009KT P6SM VCSH SCT025 BKN040
  TEMPO 2620/2624 3SM -TSRA OVC025CB
  FM270800 18005KT P6SM BKN013
  FM271000 18005KT 5SM BR BKN008
  FM271400 19005KT P6SM BKN017
  FM271800 18008KT P6SM BKN040
  PROB30 2719/2724 4SM -SHRA OVC025


KCVG 262057Z 2621/2724 24007KT P6SM VCTS SCT050CB
  FM270100 VRB03KT P6SM SCT050 BKN200
  FM270900 VRB02KT 4SM BR SCT050 BKN200
  FM271300 31004KT P6SM SCT050 BKN200
  FM271700 31005KT P6SM BKN050


KDCA 262118Z 2621/2724 18004KT P6SM VCTS BKN050CB
  FM270000 22008KT P6SM VCSH BKN050
  FM270600 22007KT P6SM BKN080
  FM271200 22005KT P6SM SCT080
  FM271700 22007KT P6SM VCTS BKN050CB


KDEN 262101Z 2621/2724 13011G20KT P6SM FEW140 BKN220
  FM270100 17011KT P6SM FEW130 BKN200
  FM270500 21012KT P6SM FEW120 BKN200
  FM271500 VRB05KT P6SM SCT220
  FM271900 11010KT P6SM FEW120 SCT220


KDFW 262050Z 2621/2724 11006KT P6SM FEW100

KDTW 262003Z 2620/2724 16007KT P6SM SCT040 BKN080
  TEMPO 2620/2622 VRB30KT 5SM -TSRA BKN030CB OVC080
  FM270100 VRB04KT P6SM SCT150
  FM270800 VRB03KT 5SM BR SCT250
  FM271300 16005KT P6SM SCT250


KEWR 262056Z 2621/2724 25010KT P6SM VCTS SCT050CB BKN140
  FM262300 27008KT P6SM SCT050 BKN120
  FM270700 VRB04KT 5SM -SHRA SCT020 OVC060
  FM271100 04008KT 5SM -RA OVC025
  FM271200 05009KT 5SM -RA SCT008 OVC015
  FM271400 05010G17KT 3SM -RA BKN008 OVC012


KFLL 262058Z 2621/2724 13015KT P6SM SHRA SCT018 SCT050 OVC060
  TEMPO 2621/2623 3SM +RA BKN025
  FM270300 14015KT P6SM SHRA VCTS SCT015 BKN030CB
  FM271200 17015G25KT P6SM VCSH OVC030


KIAD 262117Z 2621/2724 20004KT P6SM VCTS BKN060CB
  FM270000 21007KT P6SM BKN050
  FM270800 VRB03KT 5SM BR SCT080
  FM271200 21004KT P6SM SCT080
  FM271700 22006KT P6SM VCTS BKN050CB


KIAH 262043Z 2621/2724 23006KT P6SM SCT060 BKN250
  FM262300 15006KT P6SM VCSH SCT060 BKN250
  FM270200 18004KT P6SM SCT250
  FM271600 27005KT P6SM SCT050
  FM272000 01005KT P6SM VCTS SCT060CB SCT250


KJFK 262056Z 2621/2724 19013KT P6SM SCT050 BKN150
  FM262200 21009KT P6SM SCT050 SCT100 BKN150
  FM270000 22007KT P6SM SCT050 BKN150
  FM270700 VRB05KT 5SM -SHRA OVC050
  FM270900 04005KT 5SM -SHRA SCT025 OVC040
  FM271200 06009KT 5SM -RA SCT009 OVC012
  FM271500 06010G17KT 3SM -RA OVC009


KLAS 262127Z 2621/2724 16011G18KT P6SM FEW130
  FM270000 22013G22KT P6SM FEW100 SCT200
  FM270500 24010KT P6SM SCT150
  FM271400 VRB06KT P6SM SCT150
  FM272000 10006KT P6SM SCT150


KLAX 262105Z 2621/2724 26016KT P6SM SCT025
  FM270400 VRB04KT P6SM SKC
  FM270800 12006KT P6SM BKN015
  FM271700 21006KT P6SM SCT020
  FM271900 26012KT P6SM SCT020


KLGA 262118Z 2621/2724 18012KT P6SM VCTS SCT060CB BKN150
  FM270000 18009KT P6SM SCT050 BKN120
  FM270200 21006KT P6SM SCT050 BKN080
  FM270700 VRB04KT 5SM -SHRA SCT020 OVC060
  FM271000 06008KT 5SM -RA OVC025
  FM271200 06009KT 5SM -RA SCT009 OVC015
  FM271400 05013G18KT 5SM -RA BKN009 OVC012


KMCO 262114Z 2621/2724 12011KT P6SM VCSH SCT025 SCT040 OVC150
  FM270100 10008KT P6SM VCSH SCT025 BKN040 OVC150
  FM270800 12011KT P6SM VCSH SCT020 OVC040
  FM271400 14015G22KT P6SM -RA SCT020 BKN035
  TEMPO 2714/2718 1SM +TSRA BKN020CB


KMDW 262101Z 2621/2724 09008KT P6SM FEW060
  FM270800 21005KT P6SM FEW250
  FM272100 12007KT P6SM FEW070


KMEM 262015Z 2620/2724 18005KT P6SM SCT035 BKN250
  FM262130 VRB03KT P6SM VCTS SCT035CB BKN250
  FM270000 VRB02KT P6SM SCT100 BKN200
  TEMPO 2709/2713 5SM HZ SCT010
  FM271500 09006KT P6SM VCSH SCT035 BKN200


KMIA 262058Z 2621/2724 11015KT P6SM SHRA SCT014 BKN020 OVC030
  TEMPO 2621/2622 6SM RA BKN025
  FM270800 16015KT P6SM SHRA VCTS SCT010 BKN030CB
  FM271200 17015G25KT P6SM VCSH OVC030


KMSP 262012Z 2620/2724 28008KT P6SM SKC
  FM272000 20005KT P6SM FEW250


KORD 262101Z 2621/2724 27007KT P6SM SCT060 SCT250
  FM262300 09009KT P6SM FEW060
  FM270200 15005KT P6SM FEW250
  FM270800 21005KT P6SM FEW250
  FM272300 12007KT P6SM FEW070


KPDX 262052Z 2621/2718 26007KT P6SM SCT040 BKN060
  FM270000 33008KT P6SM BKN050
  FM270800 33004KT P6SM SCT050
  FM271200 VRB03KT P6SM SCT025 BKN035


KPHL 262056Z 2621/2724 24007KT P6SM VCTS SCT035CB BKN090
  TEMPO 2621/2623 3SM TSRA BKN030CB
  FM270000 21005KT P6SM -SHRA OVC040
  FM271000 15004KT 5SM -SHRA OVC025
  FM271200 10004KT 4SM -SHRA OVC011
  FM271600 07008KT 4SM -SHRA VCTS OVC015CB
  FM271800 06011G20KT P6SM OVC015
  FM272300 07010KT P6SM OVC012


KPHX 262017Z 2620/2724 28010KT P6SM SCT250
  FM262100 26012G20KT P6SM FEW250
  FM270500 27009KT P6SM FEW250
  FM271200 10006KT P6SM SKC
  FM272000 24007KT P6SM SKC


KPIT 262101Z 2621/2724 VRB03KT P6SM -SHRA BKN050
  TEMPO 2621/2701 3SM -TSRA BKN035CB
  FM270100 24007KT P6SM VCTS OVC035CB
  FM270600 00000KT P6SM VCSH BKN040
  FM271000 VRB03KT 3SM BR BKN015
  FM271500 VRB03KT P6SM BKN035


KSAN 262015Z 2620/2724 25011KT P6SM SCT025 BKN040
  FM270300 25005KT P6SM BKN020
  FM271800 27009KT P6SM SCT025 BKN040


KSEA 262105Z 2621/2724 26005KT P6SM SCT035 BKN045
  FM270100 33005KT P6SM BKN045
  FM270600 04004KT P6SM SCT045 SCT200
  FM271000 16003KT P6SM SCT020 BKN030
  FM271800 24005KT P6SM SCT030
  FM272200 27005KT P6SM SCT040


KSFO 262102Z 2621/2724 27010KT P6SM SCT018 BKN025
  TEMPO 2622/2623 SCT025
  FM262300 27019G27KT P6SM SCT025 SCT050
  FM270300 27013KT P6SM FEW015
  FM270600 28010KT P6SM BKN012
  FM271600 VRB05KT P6SM FEW015
  FM271900 27015KT P6SM SKC


KSLC 262050Z 2621/2724 33011KT P6SM SCT080 SCT150
  FM270900 20005KT P6SM VCSH SCT040 BKN080
  FM271700 32008KT P6SM -SHRA SCT030 BKN060


KSTL 262056Z 2621/2724 VRB03KT P6SM FEW045 SCT250
  FM270000 VRB04KT P6SM VCTS BKN050CB
  FM270300 VRB03KT P6SM FEW250


KTPA 262105Z 2621/2724 10007KT P6SM -SHRA SCT020 BKN060 OVC100
  TEMPO 2623/2703 BKN020 OVC060
  FM270300 11011G16KT P6SM SHRA BKN020 OVC040
  FM270600 10014G20KT 6SM SHRA VCTS BKN015CB OVC040
  FM271200 12017G23KT 6SM SHRA VCTS OVC015CB